createdAt,value
2022-09-13T00:01:35.680Z,74.90
2022-09-13T00:04:04.354Z,75.00
2022-09-13T00:06:34.246Z,75.00
2022-09-13T00:09:02.654Z,75.00
2022-09-13T00:11:32.541Z,75.00
2022-09-13T00:14:01.186Z,75.00
2022-09-13T00:16:30.986Z,75.00
2022-09-13T00:19:01.033Z,75.00
2022-09-13T00:21:29.451Z,75.20
2022-09-13T00:23:59.352Z,75.20
2022-09-13T00:26:29.275Z,75.00
2022-09-13T00:28:59.675Z,75.20
2022-09-13T00:31:29.685Z,75.00
2022-09-13T00:34:00.643Z,74.90
2022-09-13T00:36:29.435Z,75.00
2022-09-13T00:39:00.743Z,75.00
2022-09-13T00:41:29.069Z,74.90
2022-09-13T00:43:59.425Z,75.00
2022-09-13T00:46:35.324Z,75.00
2022-09-13T00:49:10.853Z,75.00
2022-09-13T00:51:40.178Z,75.00
2022-09-13T00:54:10.424Z,75.00
2022-09-13T00:56:44.810Z,75.00
2022-09-13T00:59:17.051Z,74.90
2022-09-13T01:01:49.223Z,74.90
2022-09-13T01:04:21.276Z,75.70
2022-09-13T01:06:50.954Z,75.00
2022-09-13T01:09:20.663Z,75.00
2022-09-13T01:11:55.763Z,75.00
2022-09-13T01:14:25.385Z,75.00
2022-09-13T01:16:54.524Z,75.00
2022-09-13T01:19:22.922Z,75.20
2022-09-13T01:22:23.245Z,75.20
2022-09-13T01:25:25.236Z,75.00
2022-09-13T01:28:11.809Z,75.00
2022-09-13T01:30:44.468Z,75.10
2022-09-13T01:33:35.550Z,75.20
2022-09-13T01:36:28.308Z,75.20
2022-09-13T01:39:01.159Z,75.20
2022-09-13T01:41:45.035Z,75.30
2022-09-13T01:44:29.050Z,75.40
2022-09-13T01:47:04.780Z,75.30
2022-09-13T01:49:43.164Z,75.40
2022-09-13T01:52:19.508Z,75.30
2022-09-13T01:54:54.196Z,75.30
2022-09-13T01:57:30.636Z,75.40
2022-09-13T02:00:04.100Z,75.40
2022-09-13T02:02:37.899Z,75.40
2022-09-13T02:05:11.171Z,75.40
2022-09-13T02:07:43.332Z,75.50
2022-09-13T02:10:18.273Z,75.50
2022-09-13T02:12:49.570Z,75.50
2022-09-13T02:15:21.799Z,75.40
2022-09-13T02:17:57.957Z,75.60
2022-09-13T02:20:30.068Z,75.60
2022-09-13T02:23:03.198Z,75.60
2022-09-13T02:25:34.883Z,75.60
2022-09-13T02:28:07.913Z,75.70
2022-09-13T02:30:41.518Z,75.70
2022-09-13T02:33:15.276Z,75.80
2022-09-13T02:35:51.367Z,75.80
2022-09-13T02:38:24.426Z,75.80
2022-09-13T02:40:58.687Z,75.80
2022-09-13T02:43:32.133Z,75.80
2022-09-13T02:46:13.195Z,75.90
2022-09-13T02:48:52.384Z,76.00
2022-09-13T02:51:29.769Z,76.00
2022-09-13T02:54:10.843Z,76.80
2022-09-13T02:56:49.567Z,76.10
2022-09-13T02:59:20.365Z,76.10
2022-09-13T03:01:52.026Z,76.10
2022-09-13T03:04:21.829Z,76.10
2022-09-13T03:06:51.308Z,76.20
2022-09-13T03:09:20.874Z,76.50
2022-09-13T03:12:04.589Z,76.20
2022-09-13T03:14:42.230Z,76.20
2022-09-13T03:17:24.841Z,76.20
2022-09-13T03:20:11.868Z,76.50
2022-09-13T03:23:16.318Z,76.30
2022-09-13T03:26:01.253Z,76.70
2022-09-13T03:28:40.238Z,76.30
2022-09-13T03:31:15.044Z,76.20
2022-09-13T03:33:52.772Z,76.00
2022-09-13T03:36:27.619Z,75.80
2022-09-13T03:39:01.780Z,76.00
2022-09-13T03:41:35.866Z,76.00
2022-09-13T03:44:07.581Z,75.90
2022-09-13T03:46:40.052Z,75.90
2022-09-13T03:49:10.597Z,76.00
2022-09-13T03:51:41.325Z,76.20
2022-09-13T03:54:12.585Z,76.40
2022-09-13T03:56:41.056Z,76.40
2022-09-13T03:59:09.468Z,76.40
2022-09-13T04:01:37.744Z,76.70
2022-09-13T04:04:06.014Z,76.80
2022-09-13T04:06:34.342Z,76.70
2022-09-13T04:09:04.037Z,76.80
2022-09-13T04:11:33.661Z,76.90
2022-09-13T04:14:03.966Z,77.10
2022-09-13T04:16:32.277Z,76.90
2022-09-13T04:19:00.757Z,77.20
2022-09-13T04:21:29.086Z,77.10
2022-09-13T04:23:57.377Z,77.30
2022-09-13T04:26:27.543Z,77.40
2022-09-13T04:28:56.133Z,77.40
2022-09-13T04:31:24.541Z,77.40
2022-09-13T04:33:56.210Z,77.60
2022-09-13T04:36:24.551Z,77.60
2022-09-13T04:38:53.024Z,77.70
2022-09-13T04:41:22.021Z,77.70
2022-09-13T04:43:52.631Z,77.70
2022-09-13T04:46:21.298Z,77.80
2022-09-13T04:48:50.786Z,77.90
2022-09-13T04:51:19.867Z,77.90
2022-09-13T04:53:48.381Z,78.00
2022-09-13T04:56:18.090Z,77.90
2022-09-13T04:58:46.425Z,78.10
2022-09-13T05:01:16.296Z,78.10
2022-09-13T05:03:44.890Z,78.10
2022-09-13T05:06:14.775Z,78.10
2022-09-13T05:08:43.256Z,78.30
2022-09-13T05:11:11.857Z,78.30
2022-09-13T05:13:40.170Z,78.40
2022-09-13T05:16:09.401Z,78.50
2022-09-13T05:18:49.660Z,78.50
2022-09-13T05:21:19.189Z,78.60
2022-09-13T05:23:50.844Z,78.60
2022-09-13T05:26:19.543Z,78.50
2022-09-13T05:28:48.659Z,78.60
2022-09-13T05:31:19.516Z,78.50
2022-09-13T05:33:53.718Z,78.50
2022-09-13T05:36:22.089Z,78.30
2022-09-13T05:39:01.579Z,78.30
2022-09-13T05:41:39.070Z,78.30
2022-09-13T05:44:12.884Z,78.30
2022-09-13T05:46:42.529Z,78.40
2022-09-13T05:49:13.888Z,78.30
2022-09-13T05:51:42.315Z,78.30
2022-09-13T05:54:13.268Z,78.20
2022-09-13T05:56:41.826Z,78.20
2022-09-13T05:59:13.944Z,78.20
2022-09-13T06:01:42.635Z,78.20
2022-09-13T06:04:13.020Z,78.10
2022-09-13T06:06:41.310Z,78.10
2022-09-13T06:09:12.957Z,78.20
2022-09-13T06:11:41.578Z,78.10
2022-09-13T06:14:11.109Z,78.10
2022-09-13T06:16:39.497Z,78.00
2022-09-13T06:19:08.939Z,78.90
2022-09-13T06:21:38.692Z,78.10
2022-09-13T06:24:07.721Z,78.10
2022-09-13T06:26:36.291Z,77.90
2022-09-13T06:29:04.913Z,77.90
2022-09-13T06:31:33.269Z,77.70
2022-09-13T06:34:03.520Z,77.80
2022-09-13T06:36:32.469Z,77.70
2022-09-13T06:39:02.604Z,77.60
2022-09-13T06:41:31.085Z,77.60
2022-09-13T06:44:00.842Z,77.60
2022-09-13T06:46:30.638Z,77.60
2022-09-13T06:49:01.604Z,77.40
2022-09-13T06:51:31.171Z,77.40
2022-09-13T06:54:02.360Z,77.20
2022-09-13T06:56:32.627Z,77.30
2022-09-13T06:59:03.536Z,77.20
2022-09-13T07:01:33.592Z,77.20
2022-09-13T07:04:04.369Z,77.20
2022-09-13T07:06:34.622Z,77.10
2022-09-13T07:09:07.524Z,77.10
2022-09-13T07:11:38.176Z,77.10
2022-09-13T07:14:07.497Z,76.90
2022-09-13T07:16:37.917Z,76.70
2022-09-13T07:19:07.693Z,76.70
2022-09-13T07:21:36.803Z,76.70
2022-09-13T07:24:07.503Z,76.50
2022-09-13T07:26:35.915Z,76.50
2022-09-13T07:29:06.665Z,76.40
2022-09-13T07:31:37.482Z,76.50
2022-09-13T07:34:07.825Z,76.40
2022-09-13T07:36:37.549Z,76.60
2022-09-13T07:39:12.093Z,77.00
2022-09-13T07:41:43.580Z,77.80
2022-09-13T07:44:12.867Z,77.20
2022-09-13T07:46:41.942Z,77.60
2022-09-13T07:49:11.402Z,76.90
2022-09-13T07:51:41.853Z,77.20
2022-09-13T07:54:14.843Z,77.40
2022-09-13T07:56:43.650Z,77.10
2022-09-13T07:59:15.720Z,77.50
2022-09-13T08:01:46.581Z,77.50
2022-09-13T08:04:18.543Z,78.00
2022-09-13T08:06:47.814Z,77.80
2022-09-13T08:09:18.720Z,78.00
2022-09-13T08:11:48.856Z,77.80
2022-09-13T08:14:19.111Z,77.70
2022-09-13T08:16:47.587Z,78.00
2022-09-13T08:19:18.344Z,77.40
2022-09-13T08:21:47.532Z,78.10
2022-09-13T08:24:19.646Z,77.70
2022-09-13T08:26:49.050Z,77.90
2022-09-13T08:29:18.845Z,77.70
2022-09-13T08:31:47.431Z,78.10
2022-09-13T08:34:17.073Z,78.20
2022-09-13T08:36:46.025Z,78.20
2022-09-13T08:39:16.422Z,78.40
2022-09-13T08:42:16.232Z,78.40
2022-09-13T08:44:47.681Z,78.70
2022-09-13T08:47:33.096Z,78.50
2022-09-13T08:50:10.561Z,78.50
2022-09-13T08:52:49.055Z,78.40
2022-09-13T08:55:33.015Z,78.90
2022-09-13T08:58:10.049Z,78.90
2022-09-13T09:00:42.996Z,79.20
2022-09-13T09:03:23.404Z,79.00
2022-09-13T09:05:53.163Z,79.40
2022-09-13T09:08:31.459Z,79.10
2022-09-13T09:11:04.839Z,79.40
2022-09-13T09:13:36.624Z,80.30
2022-09-13T09:16:13.385Z,79.80
2022-09-13T09:18:45.063Z,80.00
2022-09-13T09:21:17.945Z,85.80
2022-09-13T09:23:51.952Z,86.10
2022-09-13T09:26:23.249Z,87.70
2022-09-13T09:28:55.521Z,85.90
2022-09-13T09:31:35.649Z,86.60
2022-09-13T09:34:15.727Z,85.50
2022-09-13T09:36:51.078Z,86.10
2022-09-13T09:39:19.707Z,85.90
2022-09-13T09:41:49.443Z,86.20
2022-09-13T09:44:22.561Z,86.30
2022-09-13T09:46:56.602Z,87.10
2022-09-13T09:49:49.430Z,86.80
2022-09-13T09:52:22.684Z,87.10
2022-09-13T09:54:52.153Z,87.10
2022-09-13T09:57:23.378Z,87.30
2022-09-13T09:59:51.708Z,87.70
2022-09-13T10:02:22.903Z,87.70
2022-09-13T10:05:00.387Z,87.50
2022-09-13T10:07:32.845Z,87.40
2022-09-13T10:10:06.601Z,87.70
2022-09-13T10:12:39.375Z,87.60
2022-09-13T10:15:17.452Z,88.00
2022-09-13T10:18:02.227Z,87.50
2022-09-13T10:20:31.586Z,88.00
2022-09-13T10:23:19.602Z,87.20
2022-09-13T10:26:07.805Z,87.30
2022-09-13T10:28:44.255Z,87.80
2022-09-13T10:31:17.312Z,87.60
2022-09-13T10:33:54.491Z,86.60
2022-09-13T10:36:50.782Z,87.00
2022-09-13T10:39:18.763Z,86.90
2022-09-13T10:41:52.971Z,86.70
2022-09-13T10:44:42.023Z,86.50
2022-09-13T10:47:19.040Z,86.20
2022-09-13T10:49:49.088Z,86.00
2022-09-13T10:52:32.534Z,87.80
2022-09-13T10:55:27.590Z,87.60
2022-09-13T10:58:13.623Z,87.10
2022-09-13T11:01:03.394Z,87.40
2022-09-13T11:03:49.799Z,87.60
2022-09-13T11:06:24.820Z,87.40
2022-09-13T11:09:00.614Z,87.00
2022-09-13T11:11:34.646Z,87.20
2022-09-13T11:14:24.390Z,86.40
2022-09-13T11:17:04.843Z,87.60
2022-09-13T11:19:57.120Z,86.40
2022-09-13T11:22:52.070Z,87.10
2022-09-13T11:25:38.947Z,87.00
2022-09-13T11:28:16.316Z,87.30
2022-09-13T11:31:13.291Z,86.90
2022-09-13T11:33:56.572Z,86.90
2022-09-13T11:36:41.016Z,87.20
2022-09-13T11:39:19.274Z,86.80
2022-09-13T11:41:59.418Z,87.40
2022-09-13T11:45:05.819Z,87.60
2022-09-13T11:47:43.886Z,87.90
2022-09-13T11:50:24.812Z,87.80
2022-09-13T11:53:07.112Z,88.10
2022-09-13T11:55:39.433Z,87.90
2022-09-13T11:58:13.268Z,88.70
2022-09-13T12:00:45.439Z,88.30
2022-09-13T12:03:22.279Z,88.30
2022-09-13T12:05:57.110Z,88.30
2022-09-13T12:08:28.799Z,87.80
2022-09-13T12:10:59.492Z,87.90
2022-09-13T12:13:30.907Z,88.30
2022-09-13T12:16:02.715Z,88.00
2022-09-13T12:18:35.726Z,88.80
2022-09-13T12:21:10.540Z,88.30
2022-09-13T12:23:43.501Z,88.30
2022-09-13T12:26:16.987Z,88.20
2022-09-13T12:28:49.811Z,88.60
2022-09-13T12:31:23.295Z,89.20
2022-09-13T12:33:51.876Z,88.70
2022-09-13T12:36:49.525Z,89.00
2022-09-13T12:39:53.588Z,89.20
2022-09-13T12:42:48.185Z,89.60
2022-09-13T12:45:30.266Z,89.50
2022-09-13T12:48:11.507Z,89.60
2022-09-13T12:50:55.821Z,89.70
2022-09-13T12:53:47.750Z,90.00
2022-09-13T12:56:34.893Z,90.00
2022-09-13T12:59:21.377Z,90.10
2022-09-13T13:01:52.393Z,90.00
2022-09-13T13:04:25.391Z,90.50
2022-09-13T13:06:57.226Z,90.10
2022-09-13T13:09:36.991Z,90.00
2022-09-13T13:12:06.205Z,90.10
2022-09-13T13:14:53.409Z,90.10
2022-09-13T13:17:45.349Z,90.00
2022-09-13T13:21:04.373Z,90.20
2022-09-13T13:23:35.362Z,90.10
2022-09-13T13:26:11.646Z,90.00
2022-09-13T13:29:15.805Z,90.00
2022-09-13T13:32:13.731Z,90.30
2022-09-13T13:34:45.021Z,90.30
2022-09-13T13:37:37.781Z,90.10
2022-09-13T13:40:21.644Z,90.10
2022-09-13T13:42:52.060Z,90.20
2022-09-13T13:45:27.026Z,90.10
2022-09-13T13:48:11.067Z,89.90
2022-09-13T13:51:14.417Z,90.20
2022-09-13T13:53:45.595Z,90.20
2022-09-13T13:56:32.418Z,90.20
2022-09-13T13:59:07.267Z,90.20
2022-09-13T14:01:40.262Z,90.00
2022-09-13T14:04:44.181Z,89.90
2022-09-13T14:07:29.518Z,89.50
2022-09-13T14:10:03.690Z,90.00
2022-09-13T14:12:46.387Z,90.00
2022-09-13T14:15:31.290Z,90.10
2022-09-13T14:18:26.787Z,90.10
2022-09-13T14:21:03.205Z,90.40
2022-09-13T14:23:34.453Z,90.30
2022-09-13T14:26:02.908Z,90.30
2022-09-13T14:28:33.401Z,90.30
2022-09-13T14:31:03.516Z,90.50
2022-09-13T14:33:35.246Z,90.30
2022-09-13T14:36:07.648Z,90.30
2022-09-13T14:38:37.710Z,90.40
2022-09-13T14:41:16.809Z,90.30
2022-09-13T14:43:46.126Z,90.40
2022-09-13T14:46:21.926Z,90.30
2022-09-13T14:48:53.796Z,90.40
2022-09-13T14:51:26.683Z,90.30
2022-09-13T14:53:58.629Z,90.20
2022-09-13T14:56:34.399Z,90.20
2022-09-13T14:59:07.019Z,90.30
2022-09-13T15:01:37.434Z,89.80
2022-09-13T15:04:07.928Z,89.20
2022-09-13T15:06:39.329Z,89.00
2022-09-13T15:09:28.236Z,89.20
2022-09-13T15:12:01.403Z,89.40
2022-09-13T15:14:32.607Z,89.50
2022-09-13T15:17:09.460Z,89.90
2022-09-13T15:19:40.576Z,89.00
2022-09-13T15:22:20.226Z,89.00
2022-09-13T15:24:51.952Z,88.80
2022-09-13T15:27:23.763Z,88.80
2022-09-13T15:29:54.215Z,88.60
2022-09-13T15:32:33.928Z,88.30
2022-09-13T15:35:03.695Z,88.00
2022-09-13T15:37:36.033Z,87.60
2022-09-13T15:40:15.879Z,87.50
2022-09-13T15:42:48.574Z,86.60
2022-09-13T15:45:17.892Z,86.00
2022-09-13T15:47:52.256Z,85.30
2022-09-13T15:50:23.407Z,85.10
2022-09-13T15:52:51.707Z,85.40
2022-09-13T15:55:20.458Z,85.50
2022-09-13T15:57:55.031Z,85.80
2022-09-13T16:00:33.413Z,86.40
2022-09-13T16:03:21.511Z,86.00
2022-09-13T16:06:08.905Z,86.00
2022-09-13T16:09:05.429Z,85.80
2022-09-13T16:11:43.059Z,85.60
2022-09-13T16:14:31.607Z,85.40
2022-09-13T16:17:19.420Z,85.30
2022-09-13T16:19:54.468Z,85.30
2022-09-13T16:22:39.503Z,85.10
2022-09-13T16:25:19.854Z,85.10
2022-09-13T16:31:00.851Z,85.00
2022-09-13T16:33:31.762Z,85.00
2022-09-13T16:36:02.617Z,84.90
2022-09-13T16:38:34.190Z,84.80
2022-09-13T16:41:05.975Z,84.80
2022-09-13T16:43:35.895Z,84.60
2022-09-13T16:46:09.467Z,84.60
2022-09-13T16:48:41.202Z,84.60
2022-09-13T16:51:13.942Z,84.50
2022-09-13T16:53:44.042Z,84.40
2022-09-13T16:56:15.924Z,84.30
2022-09-13T16:58:48.532Z,84.40
2022-09-13T17:01:31.573Z,84.20
2022-09-13T17:04:07.650Z,84.20
2022-09-13T17:06:43.740Z,84.00
2022-09-13T17:09:38.382Z,84.00
2022-09-13T17:12:18.101Z,83.90
2022-09-13T17:14:53.926Z,83.90
2022-09-13T17:17:24.534Z,83.90
2022-09-13T17:20:00.867Z,83.90
2022-09-13T17:22:33.397Z,83.80
2022-09-13T17:25:03.921Z,83.80
2022-09-13T17:27:35.182Z,83.70
2022-09-13T17:30:15.804Z,83.70
2022-09-13T17:32:50.182Z,83.70
2022-09-13T17:35:30.315Z,83.70
2022-09-13T17:38:02.356Z,84.40
2022-09-13T17:40:35.743Z,83.60
2022-09-13T17:43:07.858Z,83.50
2022-09-13T17:45:38.900Z,83.50
2022-09-13T17:48:23.154Z,83.50
2022-09-13T17:50:56.060Z,83.40
2022-09-13T17:54:52.098Z,83.40
2022-09-13T17:57:41.974Z,83.40
2022-09-13T18:04:00.098Z,83.40
2022-09-13T18:06:49.836Z,83.40
2022-09-13T18:10:38.764Z,83.50
2022-09-13T18:13:05.352Z,83.50
2022-09-13T18:15:34.634Z,83.50
2022-09-13T18:18:17.907Z,83.50
2022-09-13T18:20:48.521Z,83.50
2022-09-13T18:23:19.687Z,83.50
2022-09-13T18:26:03.443Z,83.50
2022-09-13T18:28:36.214Z,83.50
2022-09-13T18:31:14.562Z,83.50
2022-09-13T18:33:44.290Z,83.70
2022-09-13T18:36:16.590Z,83.70
2022-09-13T18:38:47.695Z,83.70
2022-09-13T18:41:18.460Z,83.80
2022-09-13T18:43:55.174Z,83.70
2022-09-13T18:46:29.320Z,84.10
2022-09-13T18:49:03.030Z,83.80
2022-09-13T18:51:35.876Z,83.80
2022-09-13T18:54:07.395Z,84.00
2022-09-13T18:56:37.150Z,83.90
2022-09-13T18:59:12.710Z,83.70
2022-09-13T19:01:44.317Z,83.70
2022-09-13T19:04:19.741Z,83.80
2022-09-13T19:06:50.441Z,83.70
2022-09-13T19:09:21.068Z,83.70
2022-09-13T19:11:51.305Z,83.60
2022-09-13T19:14:24.676Z,83.70
2022-09-13T19:16:55.978Z,83.50
2022-09-13T19:19:27.534Z,83.70
2022-09-13T19:21:58.361Z,83.50
2022-09-13T19:24:27.253Z,83.60
2022-09-13T19:26:56.323Z,83.50
2022-09-13T19:29:29.991Z,83.60
2022-09-13T19:31:58.917Z,83.60
2022-09-13T19:50:04.174Z,83.50
2022-09-13T19:52:32.844Z,83.50
2022-09-13T19:55:02.059Z,83.50
2022-09-13T19:57:32.665Z,83.50
2022-09-13T20:00:14.453Z,83.50
2022-09-13T20:02:49.810Z,83.50
2022-09-13T20:05:19.014Z,83.50
2022-09-13T20:07:48.014Z,83.50
2022-09-13T20:10:17.703Z,83.60
2022-09-13T20:12:46.603Z,83.50
2022-09-13T20:15:15.224Z,83.60
2022-09-13T20:17:45.268Z,83.60
2022-09-13T20:20:14.233Z,83.60
2022-09-13T20:22:42.887Z,83.50
2022-09-13T20:25:11.856Z,83.60
2022-09-13T20:27:40.694Z,83.50
2022-09-13T20:30:11.499Z,83.50
2022-09-13T20:32:40.318Z,83.50
2022-09-13T20:35:12.286Z,83.60
2022-09-13T20:37:41.168Z,83.50
2022-09-13T20:40:11.162Z,83.50
2022-09-13T20:42:40.082Z,83.50
2022-09-13T20:45:09.156Z,83.50
2022-09-13T20:47:37.792Z,83.50
2022-09-13T20:50:07.384Z,83.40
2022-09-13T20:52:38.091Z,83.40
2022-09-13T20:55:07.884Z,83.40
2022-09-13T20:57:37.230Z,83.40
2022-09-13T21:00:08.720Z,83.40
2022-09-13T21:02:37.645Z,83.40
2022-09-13T21:05:06.823Z,83.30
2022-09-13T21:07:55.045Z,83.30
2022-09-13T21:10:24.650Z,83.30
2022-09-13T21:12:53.639Z,83.40
2022-09-13T21:15:22.875Z,83.30
2022-09-13T21:17:51.299Z,83.30
2022-09-13T21:20:20.022Z,83.20
2022-09-13T21:22:50.463Z,83.10
2022-09-13T21:25:19.189Z,83.10
2022-09-13T21:27:48.359Z,83.10
2022-09-13T21:30:17.909Z,83.10
2022-09-13T21:32:48.588Z,83.00
2022-09-13T21:35:17.510Z,83.00
2022-09-13T21:37:45.994Z,82.90
2022-09-13T21:40:16.067Z,83.10
2022-09-13T21:42:45.211Z,82.90
2022-09-13T21:45:15.930Z,82.90
2022-09-13T21:47:45.595Z,82.90
2022-09-13T21:50:14.613Z,82.90
2022-09-13T21:52:43.601Z,82.90
2022-09-13T21:55:12.625Z,82.90
2022-09-13T21:57:45.724Z,82.90
2022-09-13T22:00:15.659Z,82.90
2022-09-13T22:02:44.574Z,82.80
2022-09-13T22:05:12.997Z,82.80
2022-09-13T22:07:42.040Z,82.80
2022-09-13T22:10:11.578Z,82.70
2022-09-13T22:12:42.774Z,82.70
2022-09-13T22:15:12.390Z,82.60
2022-09-13T22:17:40.930Z,82.60
2022-09-13T22:20:10.556Z,82.60
2022-09-13T22:22:39.482Z,82.60
2022-09-13T22:25:09.255Z,82.60
2022-09-13T22:27:37.993Z,82.60
2022-09-13T22:30:09.275Z,82.60
2022-09-13T22:32:38.140Z,82.70
2022-09-13T22:35:09.732Z,82.60
2022-09-13T22:37:40.082Z,82.70
2022-09-13T22:40:09.505Z,82.70
2022-09-13T22:42:38.025Z,82.70
2022-09-13T22:50:54.434Z,82.80
2022-09-13T22:53:24.382Z,82.80
2022-09-13T22:55:52.936Z,82.80
2022-09-13T22:58:21.761Z,82.80
2022-09-13T23:00:52.303Z,82.80
2022-09-13T23:03:21.178Z,82.90
2022-09-13T23:05:53.618Z,82.90
2022-09-13T23:08:22.525Z,82.80
2022-09-13T23:10:51.759Z,82.80
2022-09-13T23:13:20.881Z,82.90
2022-09-13T23:15:51.851Z,82.80
2022-09-13T23:18:20.543Z,82.80
2022-09-13T23:20:58.039Z,82.80
2022-09-13T23:23:26.954Z,82.80
2022-09-13T23:25:55.299Z,83.60
2022-09-13T23:28:25.296Z,82.80
2022-09-13T23:30:55.832Z,82.80
2022-09-13T23:33:25.004Z,82.80
2022-09-13T23:35:59.131Z,82.80
2022-09-13T23:38:27.695Z,82.80
2022-09-13T23:40:57.424Z,82.80
2022-09-13T23:43:25.973Z,82.70
2022-09-13T23:45:56.153Z,82.60
2022-09-13T23:48:25.034Z,82.60
2022-09-13T23:51:00.442Z,82.60
2022-09-13T23:53:29.489Z,82.60
2022-09-13T23:55:58.563Z,82.70
2022-09-13T23:58:27.358Z,82.70
